createdAt,value
2023-03-04T00:04:41.673Z,77.84
2023-03-04T00:09:47.596Z,77.84
2023-03-04T00:14:53.084Z,77.84
2023-03-04T00:19:59.005Z,77.71
2023-03-04T00:25:04.993Z,77.69
2023-03-04T00:30:11.652Z,77.88
2023-03-04T00:35:18.738Z,77.68
2023-03-04T00:40:24.365Z,77.84
2023-03-04T00:45:29.796Z,77.94
2023-03-04T00:50:35.461Z,77.95
2023-03-04T00:55:40.967Z,77.95
2023-03-04T01:00:47.025Z,77.94
2023-03-04T01:05:52.395Z,77.99
2023-03-04T01:10:57.862Z,77.89
2023-03-04T01:16:04.031Z,77.92
2023-03-04T01:21:10.129Z,78.14
2023-03-04T01:26:15.581Z,78.25
2023-03-04T01:31:21.165Z,78.51
2023-03-04T01:36:26.687Z,78.00
2023-03-04T01:41:32.685Z,78.78
2023-03-04T01:46:38.969Z,78.69
2023-03-04T01:51:47.495Z,78.77
2023-03-04T01:56:54.301Z,78.57
2023-03-04T02:02:01.875Z,78.77
2023-03-04T02:07:08.144Z,78.97
2023-03-04T02:12:15.387Z,79.08
2023-03-04T02:17:28.874Z,79.22
2023-03-04T02:22:37.317Z,79.08
2023-03-04T02:27:43.016Z,78.88
2023-03-04T02:32:48.715Z,79.25
2023-03-04T02:37:54.370Z,78.90
2023-03-04T02:43:01.944Z,79.19
2023-03-04T02:48:08.777Z,79.07
2023-03-04T02:53:15.444Z,79.18
2023-03-04T02:58:22.209Z,79.09
2023-03-04T03:03:27.907Z,79.03
2023-03-04T03:08:33.383Z,78.96
2023-03-04T03:13:39.146Z,78.88
2023-03-04T03:18:44.803Z,78.56
2023-03-04T03:23:50.593Z,78.68
2023-03-04T03:28:56.357Z,78.76
2023-03-04T03:34:02.192Z,78.52
2023-03-04T03:39:07.654Z,78.35
2023-03-04T03:44:13.107Z,78.36
2023-03-04T03:49:18.581Z,78.45
2023-03-04T03:54:24.114Z,78.56
2023-03-04T03:59:29.763Z,78.38
2023-03-04T04:04:35.360Z,78.34
2023-03-04T04:09:41.072Z,78.55
2023-03-04T04:14:47.106Z,78.71
2023-03-04T04:19:52.653Z,78.86
2023-03-04T04:24:58.111Z,78.82
2023-03-04T04:30:04.099Z,78.54
2023-03-04T04:35:10.713Z,78.83
2023-03-04T04:40:16.944Z,78.86
2023-03-04T04:45:22.457Z,78.66
2023-03-04T04:50:30.213Z,78.75
2023-03-04T04:55:37.010Z,78.96
2023-03-04T05:00:42.519Z,78.79
2023-03-04T05:05:47.925Z,78.70
2023-03-04T05:10:54.161Z,79.19
2023-03-04T05:16:00.101Z,79.11
2023-03-04T05:21:06.719Z,78.82
2023-03-04T05:26:15.193Z,78.55
2023-03-04T05:31:20.856Z,78.92
2023-03-04T05:36:26.475Z,78.64
2023-03-04T05:41:32.032Z,78.50
2023-03-04T05:46:37.539Z,78.83
2023-03-04T05:51:43.202Z,78.46
2023-03-04T05:56:48.723Z,78.46
2023-03-04T06:01:54.198Z,78.56
2023-03-04T06:06:59.897Z,78.23
2023-03-04T06:12:05.524Z,78.35
2023-03-04T06:17:11.023Z,78.51
2023-03-04T06:22:16.636Z,78.37
2023-03-04T06:27:22.089Z,78.01
2023-03-04T06:32:27.613Z,78.12
2023-03-04T06:37:33.282Z,78.13
2023-03-04T06:42:40.143Z,78.17
2023-03-04T06:47:45.598Z,78.35
2023-03-04T06:52:51.068Z,78.71
2023-03-04T06:57:56.590Z,78.83
2023-03-04T07:03:02.225Z,78.98
2023-03-04T07:08:07.762Z,79.31
2023-03-04T07:13:13.209Z,79.69
2023-03-04T07:18:18.622Z,79.63
2023-03-04T07:23:24.377Z,79.76
2023-03-04T07:28:29.842Z,79.72
2023-03-04T07:33:35.232Z,80.00
2023-03-04T07:38:40.688Z,80.34
2023-03-04T07:43:46.575Z,80.32
2023-03-04T07:48:52.037Z,80.57
2023-03-04T07:54:01.893Z,81.17
2023-03-04T07:59:08.425Z,81.29
2023-03-04T08:04:13.989Z,80.46
2023-03-04T08:09:20.495Z,80.11
2023-03-04T08:14:27.714Z,80.35
2023-03-04T08:19:33.198Z,80.45
2023-03-04T08:24:38.752Z,79.59
2023-03-04T08:29:44.314Z,79.44
2023-03-04T08:34:49.684Z,78.94
2023-03-04T08:39:55.426Z,77.49
2023-03-04T08:45:00.923Z,77.39
2023-03-04T08:50:08.442Z,76.99
2023-03-04T08:55:14.061Z,76.31
2023-03-04T09:00:21.303Z,76.00
2023-03-04T09:05:26.751Z,75.97
2023-03-04T09:10:32.379Z,75.27
2023-03-04T09:15:38.519Z,75.51
2023-03-04T09:20:45.852Z,74.77
2023-03-04T09:25:51.696Z,75.22
2023-03-04T09:30:57.090Z,74.65
2023-03-04T09:36:02.541Z,74.48
2023-03-04T09:41:20.875Z,73.00
2023-03-04T09:46:32.617Z,73.07
2023-03-04T09:52:02.165Z,72.19
2023-03-04T09:57:34.128Z,71.94
2023-03-04T10:03:09.975Z,72.98
2023-03-04T10:08:36.056Z,72.40
2023-03-04T10:13:56.564Z,71.52
2023-03-04T10:19:04.992Z,71.61
2023-03-04T10:24:18.255Z,71.82
2023-03-04T10:29:25.668Z,71.10
2023-03-04T10:34:31.272Z,70.61
2023-03-04T10:39:40.002Z,70.86
2023-03-04T10:44:54.152Z,70.55
2023-03-04T10:50:02.690Z,70.19
2023-03-04T10:55:20.428Z,69.73
2023-03-04T11:00:32.237Z,70.32
2023-03-04T11:05:37.726Z,70.86
2023-03-04T11:10:43.791Z,70.65
2023-03-04T11:15:58.656Z,70.10
2023-03-04T11:21:04.750Z,70.22
2023-03-04T11:26:14.228Z,69.81
2023-03-04T11:31:25.496Z,68.94
2023-03-04T11:36:39.815Z,68.76
2023-03-04T11:41:48.259Z,67.35
2023-03-04T11:47:26.877Z,66.62
2023-03-04T11:52:44.234Z,67.91
2023-03-04T11:57:58.569Z,68.35
2023-03-04T12:03:18.574Z,68.08
2023-03-04T12:08:39.378Z,68.92
2023-03-04T12:13:56.647Z,69.86
2023-03-04T12:19:24.964Z,70.23
2023-03-04T12:24:58.019Z,71.47
2023-03-04T12:30:30.672Z,71.63
2023-03-04T12:35:39.153Z,71.48
2023-03-04T12:41:18.294Z,71.63
2023-03-04T12:46:27.048Z,70.59
2023-03-04T12:51:35.571Z,70.28
2023-03-04T12:56:48.337Z,69.98
2023-03-04T13:02:07.221Z,70.21
2023-03-04T13:07:16.003Z,68.66
2023-03-04T13:12:23.766Z,67.79
2023-03-04T13:17:50.692Z,67.60
2023-03-04T13:23:01.688Z,65.73
2023-03-04T13:28:28.197Z,64.28
2023-03-04T13:33:42.876Z,62.71
2023-03-04T13:38:52.379Z,62.79
2023-03-04T13:44:02.756Z,61.56
2023-03-04T13:49:11.203Z,61.79
2023-03-04T13:54:28.919Z,59.30
2023-03-04T13:59:49.089Z,58.21
2023-03-04T14:05:03.430Z,57.15
2023-03-04T14:10:15.148Z,56.62
2023-03-04T14:15:23.652Z,54.77
2023-03-04T14:20:38.058Z,51.45
2023-03-04T14:25:43.452Z,53.15
2023-03-04T14:30:57.722Z,52.81
2023-03-04T14:36:04.256Z,52.14
2023-03-04T14:41:24.396Z,50.46
2023-03-04T14:46:33.098Z,50.54
2023-03-04T14:51:41.888Z,51.29
2023-03-04T14:56:47.730Z,50.50
2023-03-04T15:01:53.345Z,51.12
2023-03-04T15:06:58.903Z,49.12
2023-03-04T15:12:07.396Z,49.36
2023-03-04T15:17:39.909Z,48.79
2023-03-04T15:22:54.382Z,47.69
2023-03-04T15:28:02.745Z,48.31
2023-03-04T15:33:09.536Z,48.85
2023-03-04T15:38:15.368Z,48.43
2023-03-04T15:43:23.473Z,48.21
2023-03-04T15:48:29.221Z,47.91
2023-03-04T15:53:49.992Z,47.87
2023-03-04T15:58:58.279Z,47.85
2023-03-04T16:04:03.870Z,47.81
2023-03-04T16:09:13.999Z,47.97
2023-03-04T16:14:19.640Z,46.76
2023-03-04T16:19:25.072Z,46.88
2023-03-04T16:24:33.968Z,47.25
2023-03-04T16:29:39.532Z,46.89
2023-03-04T16:34:45.009Z,46.65
2023-03-04T16:39:50.646Z,46.75
2023-03-04T16:44:57.657Z,46.89
2023-03-04T16:50:03.209Z,46.68
2023-03-04T16:55:11.789Z,46.93
2023-03-04T17:00:19.557Z,46.66
2023-03-04T17:05:27.610Z,47.20
2023-03-04T17:10:33.200Z,46.97
2023-03-04T17:15:38.965Z,46.97
2023-03-04T17:20:45.006Z,47.11
2023-03-04T17:25:53.432Z,47.16
2023-03-04T17:30:59.036Z,47.45
2023-03-04T17:36:04.793Z,47.65
2023-03-04T17:41:18.163Z,47.65
2023-03-04T17:46:28.011Z,47.62
2023-03-04T17:51:37.106Z,47.62
2023-03-04T17:56:44.503Z,47.77
2023-03-04T18:01:52.290Z,47.76
2023-03-04T18:06:57.397Z,47.64
2023-03-04T18:12:02.942Z,47.83
2023-03-04T18:17:08.581Z,48.00
2023-03-04T18:22:14.107Z,48.00
2023-03-04T18:27:19.636Z,47.72
2023-03-04T18:32:25.325Z,47.72
2023-03-04T18:37:31.373Z,47.87
2023-03-04T18:42:37.749Z,48.03
2023-03-04T18:47:45.706Z,47.80
2023-03-04T18:52:55.967Z,47.91
2023-03-04T18:58:01.737Z,47.91
2023-03-04T19:03:12.873Z,47.90
2023-03-04T19:08:18.407Z,47.87
2023-03-04T19:13:24.061Z,47.93
2023-03-04T19:18:30.444Z,48.03
2023-03-04T19:23:36.410Z,48.44
2023-03-04T19:28:42.266Z,48.58
2023-03-04T19:33:48.558Z,48.79
2023-03-04T19:38:55.582Z,48.89
2023-03-04T19:44:02.144Z,49.04
2023-03-04T19:49:10.087Z,49.59
2023-03-04T19:54:15.931Z,49.73
2023-03-04T19:59:21.949Z,49.93
2023-03-04T20:04:27.492Z,50.37
2023-03-04T20:09:34.269Z,50.58
2023-03-04T20:14:39.733Z,50.45
2023-03-04T20:19:45.249Z,50.92
2023-03-04T20:24:50.785Z,50.96
2023-03-04T20:29:56.744Z,51.07
2023-03-04T20:35:02.450Z,51.31
2023-03-04T20:40:08.522Z,51.50
2023-03-04T20:45:13.908Z,51.74
2023-03-04T20:50:19.435Z,51.58
2023-03-04T20:55:24.945Z,52.17
2023-03-04T21:00:30.866Z,52.14
2023-03-04T21:05:36.347Z,52.29
2023-03-04T21:10:43.456Z,52.72
2023-03-04T21:15:50.549Z,52.52
2023-03-04T21:20:56.143Z,52.79
2023-03-04T21:26:01.730Z,53.06
2023-03-04T21:31:09.428Z,53.65
2023-03-04T21:36:15.881Z,53.97
2023-03-04T21:41:24.192Z,53.88
2023-03-04T21:46:29.844Z,54.12
2023-03-04T21:51:35.841Z,54.27
2023-03-04T21:56:42.083Z,54.33
2023-03-04T22:01:48.344Z,54.28
2023-03-04T22:06:53.876Z,54.54
2023-03-04T22:11:59.436Z,54.69
2023-03-04T22:17:05.196Z,54.71
2023-03-04T22:22:11.860Z,54.61
2023-03-04T22:27:17.787Z,54.69
2023-03-04T22:32:24.183Z,54.59
2023-03-04T22:37:29.676Z,54.63
2023-03-04T22:42:35.706Z,54.72
2023-03-04T22:47:43.184Z,55.11
2023-03-04T22:52:49.305Z,55.20
2023-03-04T22:57:54.782Z,55.40
2023-03-04T23:03:00.397Z,55.41
2023-03-04T23:08:06.117Z,55.21
2023-03-04T23:13:11.509Z,55.32
2023-03-04T23:18:17.084Z,55.44
2023-03-04T23:23:22.654Z,55.60
2023-03-04T23:28:28.368Z,55.59
2023-03-04T23:33:33.969Z,55.74
2023-03-04T23:38:39.422Z,55.63
2023-03-04T23:43:45.018Z,55.71
2023-03-04T23:48:51.313Z,55.67
2023-03-04T23:53:57.929Z,55.41
2023-03-04T23:59:04.179Z,55.43
